Back to Top

Language: 

My Weather Underground Personal Weather Station Historical Data with Graphs...

Delerius Weather Station Historical Data
Daily Summary for January 14, 2017 Units:  English    Metric   Both
« Previous Day
Next Day »
Daily Weekly Monthly Yearly Custom
  High: Low: Average:
Temperature: 44.5 °F 32.1 °F 37.7 °F
Dew Point: 37.3 °F 24.8 °F 33.4 °F
Humidity: 92 % 69 % 85 %
Wind Speed: 14.0 mph 0.0 mph 5.7 mph
Wind Gust: 19.0 mph - -
Wind:- - WNW
Pressure: 30.20 in 29.96 in -
Precipitation: 0.00 in    
Historical Graphs
 
 
Tabular Data for January 14, 2017
Time Temperature Dew Point Pressure Wind Wind Speed Wind Gust Humidity Rainfall Rate (Hourly) solar Conditions
00:00 32.2 °F 24.8 °F 30.00 in West 6.0 mph 6.0 mph 74 % 0.00 in 0 W/m2
00:05 32.1 °F 25.1 °F 30.00 in WNW 6.0 mph 8.0 mph 75 % 0.00 in 0 W/m2
00:15 32.2 °F 25.5 °F 30.00 in WNW 6.0 mph 8.0 mph 76 % 0.00 in 0 W/m2
00:20 32.3 °F 25.9 °F 30.00 in WNW 6.0 mph 6.0 mph 77 % 0.00 in 0 W/m2
00:25 32.3 °F 25.9 °F 30.00 in WNW 6.0 mph 6.0 mph 77 % 0.00 in 0 W/m2
00:30 32.4 °F 26.3 °F 30.00 in WNW 6.0 mph 6.0 mph 78 % 0.00 in 0 W/m2
00:35 32.3 °F 26.5 °F 30.00 in West 5.0 mph 6.0 mph 79 % 0.00 in 0 W/m2
00:40 32.4 °F 26.9 °F 30.00 in West 6.0 mph 12.0 mph 80 % 0.00 in 0 W/m2
00:45 32.7 °F 27.2 °F 30.00 in West 8.0 mph 12.0 mph 80 % 0.00 in 0 W/m2
00:55 32.9 °F 27.7 °F 30.00 in WNW 8.0 mph 9.0 mph 81 % 0.00 in 0 W/m2
01:00 33.0 °F 28.1 °F 30.00 in WNW 8.0 mph 10.0 mph 82 % 0.00 in 0 W/m2
01:05 33.1 °F 28.5 °F 29.99 in West 7.0 mph 10.0 mph 83 % 0.00 in 0 W/m2
01:10 33.3 °F 28.7 °F 29.99 in West 5.0 mph 5.0 mph 83 % 0.00 in 0 W/m2
01:15 33.2 °F 28.9 °F 29.99 in West 4.0 mph 9.0 mph 84 % 0.00 in 0 W/m2
01:20 33.2 °F 29.2 °F 29.99 in WNW 5.0 mph 10.0 mph 85 % 0.00 in 0 W/m2
01:25 33.3 °F 29.6 °F 29.99 in WNW 7.0 mph 10.0 mph 86 % 0.00 in 0 W/m2
01:35 33.9 °F 30.4 °F 29.98 in WNW 9.0 mph 9.0 mph 87 % 0.00 in 0 W/m2
01:40 34.2 °F 31.0 °F 29.98 in WNW 8.0 mph 11.0 mph 88 % 0.00 in 0 W/m2
01:45 34.4 °F 30.9 °F 29.98 in NW 9.0 mph 11.0 mph 87 % 0.00 in 0 W/m2
01:50 34.6 °F 31.4 °F 29.98 in WNW 8.0 mph 10.0 mph 88 % 0.00 in 0 W/m2
01:55 34.8 °F 31.3 °F 29.98 in WNW 8.0 mph 10.0 mph 87 % 0.00 in 0 W/m2
02:00 35.1 °F 31.6 °F 29.98 in West 8.0 mph 19.0 mph 87 % 0.00 in 0 W/m2
02:10 35.6 °F 32.1 °F 29.97 in West 11.0 mph 11.0 mph 87 % 0.00 in 0 W/m2
02:15 35.9 °F 32.4 °F 29.97 in WNW 11.0 mph 12.0 mph 87 % 0.00 in 0 W/m2
02:20 36.1 °F 32.6 °F 29.97 in West 11.0 mph 11.0 mph 87 % 0.00 in 0 W/m2
02:25 36.2 °F 32.7 °F 29.97 in WNW 9.0 mph 11.0 mph 87 % 0.00 in 0 W/m2
02:30 36.3 °F 32.8 °F 29.97 in West 7.0 mph 7.0 mph 87 % 0.00 in 0 W/m2
02:35 36.3 °F 32.8 °F 29.97 in West 8.0 mph 14.0 mph 87 % 0.00 in 0 W/m2
02:40 36.5 °F 33.0 °F 29.97 in West 11.0 mph 15.0 mph 87 % 0.00 in 0 W/m2
02:45 36.6 °F 33.1 °F 29.97 in WNW 13.0 mph 15.0 mph 87 % 0.00 in 0 W/m2
02:55 36.7 °F 33.2 °F 29.96 in West 11.0 mph 15.0 mph 87 % 0.00 in 0 W/m2
03:00 36.8 °F 33.3 °F 29.96 in West 11.0 mph 11.0 mph 87 % 0.00 in 0 W/m2
03:05 36.9 °F 33.4 °F 29.96 in West 11.0 mph 11.0 mph 87 % 0.00 in 0 W/m2
03:10 36.9 °F 33.4 °F 29.96 in WNW 12.0 mph 13.0 mph 87 % 0.00 in 0 W/m2
03:20 36.9 °F 33.4 °F 29.97 in West 12.0 mph 14.0 mph 87 % 0.00 in 0 W/m2
03:30 36.9 °F 33.7 °F 29.97 in WNW 14.0 mph 14.0 mph 88 % 0.00 in 0 W/m2
03:35 36.8 °F 33.6 °F 29.97 in WNW 13.0 mph 16.0 mph 88 % 0.00 in 0 W/m2
03:40 36.7 °F 33.5 °F 29.98 in West 11.0 mph 11.0 mph 88 % 0.00 in 0 W/m2
03:45 36.8 °F 33.9 °F 29.98 in WNW 10.0 mph 11.0 mph 89 % 0.00 in 0 W/m2
03:50 36.8 °F 33.9 °F 29.97 in WNW 10.0 mph 12.0 mph 89 % 0.00 in 0 W/m2
03:55 36.6 °F 33.9 °F 29.97 in West 9.0 mph 12.0 mph 90 % 0.00 in 0 W/m2
04:05 36.3 °F 33.6 °F 29.97 in NW 9.0 mph 12.0 mph 90 % 0.00 in 0 W/m2
04:10 36.3 °F 33.9 °F 29.97 in WNW 9.0 mph 12.0 mph 91 % 0.00 in 0 W/m2
04:15 36.2 °F 33.5 °F 29.98 in WNW 9.0 mph 12.0 mph 90 % 0.00 in 0 W/m2
04:20 36.3 °F 33.9 °F 29.98 in WNW 9.0 mph 10.0 mph 91 % 0.00 in 0 W/m2
04:25 36.4 °F 34.0 °F 29.97 in WNW 9.0 mph 10.0 mph 91 % 0.00 in 0 W/m2
04:30 36.5 °F 34.1 °F 29.97 in NW 9.0 mph 14.0 mph 91 % 0.00 in 0 W/m2
04:35 36.6 °F 34.2 °F 29.98 in WNW 9.0 mph 14.0 mph 91 % 0.00 in 0 W/m2
04:45 36.9 °F 34.2 °F 29.98 in WNW 10.0 mph 13.0 mph 90 % 0.00 in 0 W/m2
04:50 36.9 °F 34.2 °F 29.98 in WNW 10.0 mph 10.0 mph 90 % 0.00 in 0 W/m2
04:55 36.9 °F 34.2 °F 29.98 in WNW 10.0 mph 10.0 mph 90 % 0.00 in 0 W/m2
05:00 37.0 °F 34.3 °F 29.98 in WNW 11.0 mph 11.0 mph 90 % 0.00 in 0 W/m2
05:05 37.0 °F 34.1 °F 29.98 in NW 11.0 mph 19.0 mph 89 % 0.00 in 0 W/m2
05:10 37.0 °F 34.1 °F 29.99 in WNW 11.0 mph 11.0 mph 89 % 0.00 in 0 W/m2
05:15 36.9 °F 33.7 °F 29.99 in West 10.0 mph 12.0 mph 88 % 0.00 in 0 W/m2
05:25 37.0 °F 33.8 °F 29.99 in NW 11.0 mph 11.0 mph 88 % 0.00 in 0 W/m2
05:30 37.1 °F 33.6 °F 29.99 in NW 11.0 mph 14.0 mph 87 % 0.00 in 0 W/m2
05:35 37.2 °F 33.4 °F 29.99 in WNW 10.0 mph 14.0 mph 86 % 0.00 in 0 W/m2
05:40 37.3 °F 33.5 °F 29.99 in WNW 9.0 mph 9.0 mph 86 % 0.00 in 0 W/m2
05:45 37.3 °F 33.5 °F 29.99 in WNW 8.0 mph 10.0 mph 86 % 0.00 in 0 W/m2
05:50 37.4 °F 33.6 °F 29.99 in NW 8.0 mph 10.0 mph 86 % 0.00 in 0 W/m2
06:00 37.6 °F 33.8 °F 29.99 in WNW 8.0 mph 10.0 mph 86 % 0.00 in 0 W/m2
06:05 37.7 °F 33.9 °F 29.99 in NW 8.0 mph 10.0 mph 86 % 0.00 in 0 W/m2
06:10 37.8 °F 34.0 °F 30.00 in NW 8.0 mph 10.0 mph 86 % 0.00 in 0 W/m2
06:15 37.8 °F 34.0 °F 30.00 in WNW 8.0 mph 13.0 mph 86 % 0.00 in 0 W/m2
06:20 37.9 °F 34.1 °F 30.00 in WNW 9.0 mph 9.0 mph 86 % 0.00 in 0 W/m2
06:25 37.9 °F 34.1 °F 30.00 in WNW 9.0 mph 10.0 mph 86 % 0.00 in 0 W/m2
06:35 38.0 °F 34.2 °F 30.00 in West 8.0 mph 10.0 mph 86 % 0.00 in 0 W/m2
06:40 38.0 °F 34.2 °F 30.00 in NW 9.0 mph 10.0 mph 86 % 0.00 in 0 W/m2
06:50 38.1 °F 34.3 °F 30.01 in NNW 7.0 mph 12.0 mph 86 % 0.00 in 0 W/m2
06:55 38.2 °F 34.4 °F 30.01 in NW 7.0 mph 12.0 mph 86 % 0.00 in 0 W/m2
07:00 38.2 °F 34.4 °F 30.01 in NNW 6.0 mph 6.0 mph 86 % 0.00 in 0 W/m2
07:05 38.1 °F 34.3 °F 30.01 in NW 6.0 mph 10.0 mph 86 % 0.00 in 0 W/m2
07:10 38.1 °F 34.3 °F 30.01 in WNW 6.0 mph 6.0 mph 86 % 0.00 in 0 W/m2
07:15 38.1 °F 34.3 °F 30.01 in WNW 5.0 mph 10.0 mph 86 % 0.00 in 0 W/m2
07:20 38.1 °F 34.3 °F 30.02 in WNW 5.0 mph 5.0 mph 86 % 0.00 in 0 W/m2
07:25 38.0 °F 34.5 °F 30.02 in NW 5.0 mph 10.0 mph 87 % 0.00 in 0 W/m2
07:35 38.0 °F 34.5 °F 30.02 in NW 5.0 mph 7.0 mph 87 % 0.00 in 0 W/m2
07:40 38.0 °F 34.5 °F 30.02 in WNW 5.0 mph 10.0 mph 87 % 0.00 in 0 W/m2
07:45 38.0 °F 34.8 °F 30.02 in WNW 3.0 mph 10.0 mph 88 % 0.00 in 0 W/m2
07:50 38.0 °F 34.8 °F 30.02 in NW 4.0 mph 4.0 mph 88 % 0.00 in 0 W/m2
07:55 38.1 °F 34.9 °F 30.03 in WNW 6.0 mph 6.0 mph 88 % 0.00 in 0 W/m2
08:00 38.2 °F 35.0 °F 30.03 in NW 6.0 mph 6.0 mph 88 % 0.00 in 0 W/m2
08:05 38.3 °F 35.1 °F 30.03 in NW 5.0 mph 10.0 mph 88 % 0.00 in 0 W/m2
08:15 38.3 °F 34.8 °F 30.03 in NW 6.0 mph 8.0 mph 87 % 0.00 in 0 W/m2
08:20 38.3 °F 34.8 °F 30.03 in NW 6.0 mph 10.0 mph 87 % 0.00 in 5 W/m2
08:25 38.3 °F 34.8 °F 30.04 in NNW 5.0 mph 10.0 mph 87 % 0.00 in 5 W/m2
08:30 38.3 °F 34.8 °F 30.04 in WNW 5.0 mph 10.0 mph 87 % 0.00 in 5 W/m2
08:35 38.4 °F 34.6 °F 30.04 in NW 5.0 mph 10.0 mph 86 % 0.00 in 7 W/m2
08:40 38.4 °F 34.6 °F 30.04 in NW 5.0 mph 10.0 mph 86 % 0.00 in 11 W/m2
08:50 38.4 °F 34.3 °F 30.04 in NW 6.0 mph 10.0 mph 85 % 0.00 in 18 W/m2
08:55 38.5 °F 34.4 °F 30.05 in NNW 7.0 mph 10.0 mph 85 % 0.00 in 23 W/m2
09:00 38.5 °F 34.4 °F 30.05 in North 6.0 mph 6.0 mph 85 % 0.00 in 26 W/m2
09:05 38.5 °F 34.4 °F 30.05 in NW 5.0 mph 10.0 mph 85 % 0.00 in 28 W/m2
09:10 38.5 °F 34.4 °F 30.05 in WNW 4.0 mph 10.0 mph 85 % 0.00 in 35 W/m2
09:15 38.4 °F 34.3 °F 30.06 in NW 4.0 mph 10.0 mph 85 % 0.00 in 35 W/m2
09:20 38.5 °F 34.4 °F 30.06 in NW 4.0 mph 10.0 mph 85 % 0.00 in 39 W/m2
09:30 38.4 °F 34.3 °F 30.06 in NNW 3.0 mph 10.0 mph 85 % 0.00 in 35 W/m2
09:35 38.4 °F 34.3 °F 30.07 in NNW 4.0 mph 10.0 mph 85 % 0.00 in 37 W/m2
09:40 38.4 °F 34.3 °F 30.07 in NW 4.0 mph 10.0 mph 85 % 0.00 in 49 W/m2
09:45 38.3 °F 34.5 °F 30.07 in WNW 4.0 mph 10.0 mph 86 % 0.00 in 70 W/m2
09:50 38.4 °F 34.6 °F 30.07 in WNW 4.0 mph 4.0 mph 86 % 0.00 in 118 W/m2
09:55 38.5 °F 34.7 °F 30.07 in WNW 3.0 mph 5.0 mph 86 % 0.00 in 93 W/m2
10:00 38.7 °F 34.9 °F 30.07 in West 3.0 mph 10.0 mph 86 % 0.00 in 102 W/m2
10:10 39.0 °F 35.2 °F 30.07 in NW 5.0 mph 10.0 mph 86 % 0.00 in 97 W/m2
10:15 39.2 °F 35.4 °F 30.07 in WNW 5.0 mph 10.0 mph 86 % 0.00 in 83 W/m2
10:20 39.3 °F 35.5 °F 30.07 in NW 5.0 mph 10.0 mph 86 % 0.00 in 67 W/m2
10:25 39.3 °F 35.2 °F 30.07 in NW 5.0 mph 10.0 mph 85 % 0.00 in 58 W/m2
10:30 39.3 °F 34.9 °F 30.08 in NW 6.0 mph 10.0 mph 84 % 0.00 in 65 W/m2
10:35 39.3 °F 34.9 °F 30.08 in NW 5.0 mph 10.0 mph 84 % 0.00 in 114 W/m2
10:40 39.4 °F 35.0 °F 30.08 in NW 4.0 mph 4.0 mph 84 % 0.00 in 72 W/m2
10:49 39.3 °F 34.6 °F 30.08 in WNW 5.0 mph 10.0 mph 83 % 0.00 in 63 W/m2
10:55 39.4 °F 34.7 °F 30.08 in NW 5.0 mph 10.0 mph 83 % 0.00 in 243 W/m2
11:00 39.8 °F 35.1 °F 30.08 in NW 5.0 mph 10.0 mph 83 % 0.00 in 244 W/m2
11:05 40.2 °F 35.1 °F 30.08 in WNW 5.0 mph 11.0 mph 82 % 0.00 in 250 W/m2
11:10 40.7 °F 35.3 °F 30.08 in NW 6.0 mph 10.0 mph 81 % 0.00 in 253 W/m2
11:15 41.0 °F 35.3 °F 30.08 in NW 7.0 mph 10.0 mph 80 % 0.00 in 257 W/m2
11:20 41.2 °F 35.2 °F 30.09 in NW 7.0 mph 7.0 mph 79 % 0.00 in 260 W/m2
11:25 41.6 °F 35.6 °F 30.08 in WNW 6.0 mph 10.0 mph 79 % 0.00 in 264 W/m2
11:35 42.2 °F 35.5 °F 30.08 in WNW 5.0 mph 10.0 mph 77 % 0.00 in 267 W/m2
11:40 42.4 °F 35.4 °F 30.08 in NW 5.0 mph 5.0 mph 76 % 0.00 in 269 W/m2
11:45 42.5 °F 35.1 °F 30.08 in NW 6.0 mph 6.0 mph 75 % 0.00 in 272 W/m2
11:50 42.5 °F 35.1 °F 30.08 in NNW 7.0 mph 7.0 mph 75 % 0.00 in 274 W/m2
12:00 43.0 °F 35.6 °F 30.08 in West 6.0 mph 10.0 mph 75 % 0.00 in 278 W/m2
12:15 43.1 °F 35.4 °F 30.08 in WNW 8.0 mph 12.0 mph 74 % 0.00 in 279 W/m2
12:20 43.1 °F 35.7 °F 30.08 in NW 10.0 mph 10.0 mph 75 % 0.00 in 278 W/m2
12:25 43.2 °F 35.8 °F 30.08 in WNW 9.0 mph 12.0 mph 75 % 0.00 in 278 W/m2
12:30 43.3 °F 35.6 °F 30.09 in NW 8.0 mph 8.0 mph 74 % 0.00 in 276 W/m2
12:35 43.4 °F 35.7 °F 30.09 in WNW 8.0 mph 10.0 mph 74 % 0.00 in 276 W/m2
12:40 43.7 °F 36.0 °F 30.09 in NW 7.0 mph 7.0 mph 74 % 0.00 in 274 W/m2
12:50 44.1 °F 36.3 °F 30.09 in West 7.0 mph 7.0 mph 74 % 0.00 in 272 W/m2
12:55 44.2 °F 36.1 °F 30.09 in West 8.0 mph 8.0 mph 73 % 0.00 in 299 W/m2
13:00 44.5 °F 36.7 °F 30.10 in WNW 8.0 mph 8.0 mph 74 % 0.00 in 341 W/m2
13:05 44.5 °F 36.7 °F 30.10 in NW 9.0 mph 9.0 mph 74 % 0.00 in 278 W/m2
13:10 44.4 °F 37.0 °F 30.10 in NW 8.0 mph 8.0 mph 75 % 0.00 in 83 W/m2
13:15 44.3 °F 36.9 °F 30.10 in NW 7.0 mph 10.0 mph 75 % 0.00 in 97 W/m2
13:25 43.7 °F 37.0 °F 30.10 in West 6.0 mph 10.0 mph 77 % 0.00 in 56 W/m2
13:30 43.4 °F 36.7 °F 30.10 in WNW 6.0 mph 6.0 mph 77 % 0.00 in 121 W/m2
13:35 43.4 °F 36.7 °F 30.10 in WNW 6.0 mph 10.0 mph 77 % 0.00 in 220 W/m2
13:40 43.7 °F 37.0 °F 30.10 in WNW 5.0 mph 10.0 mph 77 % 0.00 in 258 W/m2
13:45 44.0 °F 36.9 °F 30.10 in WNW 5.0 mph 10.0 mph 76 % 0.00 in 281 W/m2
13:50 44.4 °F 37.3 °F 30.10 in NNW 7.0 mph 10.0 mph 76 % 0.00 in 258 W/m2
13:55 44.4 °F 36.6 °F 30.10 in WNW 8.0 mph 10.0 mph 74 % 0.00 in 230 W/m2
14:05 44.3 °F 35.5 °F 30.10 in NW 9.0 mph 9.0 mph 71 % 0.00 in 206 W/m2
14:10 44.1 °F 35.3 °F 30.10 in NW 11.0 mph 11.0 mph 71 % 0.00 in 197 W/m2
14:15 44.0 °F 35.2 °F 30.10 in WNW 9.0 mph 11.0 mph 71 % 0.00 in 192 W/m2
14:20 44.0 °F 35.2 °F 30.10 in NW 8.0 mph 10.0 mph 71 % 0.00 in 179 W/m2
14:25 44.0 °F 35.6 °F 30.11 in NW 8.0 mph 10.0 mph 72 % 0.00 in 172 W/m2
14:30 43.9 °F 35.1 °F 30.11 in WNW 10.0 mph 10.0 mph 71 % 0.00 in 162 W/m2
14:35 43.7 °F 34.6 °F 30.11 in WNW 10.0 mph 10.0 mph 70 % 0.00 in 153 W/m2
14:45 43.5 °F 34.4 °F 30.11 in WNW 9.0 mph 15.0 mph 70 % 0.00 in 137 W/m2
14:50 43.4 °F 34.3 °F 30.11 in NW 9.0 mph 9.0 mph 70 % 0.00 in 132 W/m2
14:55 43.4 °F 33.9 °F 30.11 in WNW 9.0 mph 11.0 mph 69 % 0.00 in 123 W/m2
15:00 43.3 °F 33.8 °F 30.11 in West 7.0 mph 7.0 mph 69 % 0.00 in 76 W/m2
15:05 43.0 °F 33.5 °F 30.11 in NNW 6.0 mph 10.0 mph 69 % 0.00 in 23 W/m2
15:10 42.5 °F 33.4 °F 30.12 in NW 7.0 mph 11.0 mph 70 % 0.00 in 23 W/m2
15:15 42.1 °F 33.0 °F 30.12 in WNW 7.0 mph 11.0 mph 70 % 0.00 in 19 W/m2
15:24 41.4 °F 33.4 °F 30.12 in WNW 7.0 mph 10.0 mph 73 % 0.00 in 28 W/m2
15:30 41.2 °F 33.5 °F 30.13 in West 7.0 mph 7.0 mph 74 % 0.00 in 25 W/m2
15:35 41.0 °F 34.0 °F 30.13 in WNW 7.0 mph 10.0 mph 76 % 0.00 in 21 W/m2
15:40 40.8 °F 34.1 °F 30.13 in NW 7.0 mph 10.0 mph 77 % 0.00 in 21 W/m2
15:45 40.6 °F 34.3 °F 30.13 in NW 8.0 mph 11.0 mph 78 % 0.00 in 19 W/m2
15:50 40.3 °F 34.3 °F 30.13 in NW 8.0 mph 8.0 mph 79 % 0.00 in 14 W/m2
15:59 39.9 °F 34.5 °F 30.14 in WNW 6.0 mph 10.0 mph 81 % 0.00 in 9 W/m2
16:05 39.7 °F 34.3 °F 30.14 in WNW 6.0 mph 10.0 mph 81 % 0.00 in 7 W/m2
16:10 39.5 °F 34.5 °F 30.14 in West 7.0 mph 7.0 mph 82 % 0.00 in 5 W/m2
16:15 39.3 °F 34.6 °F 30.15 in NW 6.0 mph 10.0 mph 83 % 0.00 in 5 W/m2
16:20 39.1 °F 34.4 °F 30.14 in WNW 5.0 mph 10.0 mph 83 % 0.00 in 0 W/m2
16:25 38.9 °F 34.5 °F 30.14 in WNW 5.0 mph 10.0 mph 84 % 0.00 in 0 W/m2
16:30 38.6 °F 34.2 °F 30.14 in WNW 5.0 mph 5.0 mph 84 % 0.00 in 0 W/m2
16:40 38.2 °F 34.1 °F 30.14 in WNW 5.0 mph 10.0 mph 85 % 0.00 in 0 W/m2
16:50 38.0 °F 34.2 °F 30.14 in WNW 6.0 mph 6.0 mph 86 % 0.00 in 0 W/m2
16:55 37.8 °F 34.0 °F 30.15 in WNW 5.0 mph 10.0 mph 86 % 0.00 in 0 W/m2
17:00 37.8 °F 34.0 °F 30.15 in WNW 6.0 mph 6.0 mph 86 % 0.00 in 0 W/m2
17:05 37.7 °F 34.2 °F 30.15 in WNW 6.0 mph 10.0 mph 87 % 0.00 in 0 W/m2
17:10 37.7 °F 34.2 °F 30.15 in WNW 6.0 mph 6.0 mph 87 % 0.00 in 0 W/m2
17:15 37.7 °F 34.2 °F 30.15 in NW 6.0 mph 7.0 mph 87 % 0.00 in 0 W/m2
17:20 37.6 °F 34.1 °F 30.15 in WNW 6.0 mph 6.0 mph 87 % 0.00 in 0 W/m2
17:25 37.5 °F 34.0 °F 30.15 in NW 5.0 mph 10.0 mph 87 % 0.00 in 0 W/m2
17:35 37.2 °F 33.7 °F 30.15 in WNW 5.0 mph 10.0 mph 87 % 0.00 in 0 W/m2
17:40 37.1 °F 33.6 °F 30.16 in NW 4.0 mph 10.0 mph 87 % 0.00 in 0 W/m2
17:45 37.1 °F 33.6 °F 30.16 in WNW 4.0 mph 10.0 mph 87 % 0.00 in 0 W/m2
17:50 37.1 °F 33.9 °F 30.16 in NW 4.0 mph 10.0 mph 88 % 0.00 in 0 W/m2
17:55 37.1 °F 33.9 °F 30.16 in NW 3.0 mph 10.0 mph 88 % 0.00 in 0 W/m2
18:00 37.1 °F 33.9 °F 30.16 in NW 2.0 mph 10.0 mph 88 % 0.00 in 0 W/m2
18:05 37.0 °F 33.8 °F 30.16 in NW 2.0 mph 10.0 mph 88 % 0.00 in 0 W/m2
18:10 37.0 °F 33.8 °F 30.16 in NNW 2.0 mph 2.0 mph 88 % 0.00 in 0 W/m2
18:20 37.0 °F 33.8 °F 30.17 in WNW 3.0 mph 10.0 mph 88 % 0.00 in 0 W/m2
18:30 37.0 °F 34.1 °F 30.17 in NW 4.0 mph 10.0 mph 89 % 0.00 in 0 W/m2
18:35 36.9 °F 34.0 °F 30.17 in NW 4.0 mph 10.0 mph 89 % 0.00 in 0 W/m2
18:40 36.8 °F 33.9 °F 30.16 in NW 3.0 mph 10.0 mph 89 % 0.00 in 0 W/m2
18:45 36.7 °F 33.8 °F 30.16 in NW 3.0 mph 10.0 mph 89 % 0.00 in 0 W/m2
18:50 36.6 °F 33.7 °F 30.16 in NW 3.0 mph 3.0 mph 89 % 0.00 in 0 W/m2
18:55 36.5 °F 33.6 °F 30.16 in WNW 2.0 mph 10.0 mph 89 % 0.00 in 0 W/m2
19:00 36.4 °F 33.5 °F 30.16 in WNW 3.0 mph 10.0 mph 89 % 0.00 in 0 W/m2
19:10 36.2 °F 33.3 °F 30.17 in WNW 4.0 mph 10.0 mph 89 % 0.00 in 0 W/m2
19:15 36.2 °F 33.3 °F 30.17 in WNW 4.0 mph 10.0 mph 89 % 0.00 in 0 W/m2
19:20 36.1 °F 33.2 °F 30.17 in WNW 4.0 mph 4.0 mph 89 % 0.00 in 0 W/m2
19:25 35.9 °F 33.0 °F 30.17 in WNW 3.0 mph 10.0 mph 89 % 0.00 in 0 W/m2
19:30 35.7 °F 32.8 °F 30.17 in WNW 3.0 mph 3.0 mph 89 % 0.00 in 0 W/m2
19:35 35.5 °F 32.6 °F 30.18 in WNW 3.0 mph 6.0 mph 89 % 0.00 in 0 W/m2
19:45 35.2 °F 32.6 °F 30.18 in WNW 4.0 mph 10.0 mph 90 % 0.00 in 0 W/m2
19:50 35.1 °F 32.5 °F 30.18 in WNW 3.0 mph 10.0 mph 90 % 0.00 in 0 W/m2
19:55 35.0 °F 32.4 °F 30.18 in WNW 3.0 mph 10.0 mph 90 % 0.00 in 0 W/m2
20:00 34.8 °F 32.2 °F 30.18 in WNW 3.0 mph 10.0 mph 90 % 0.00 in 0 W/m2
20:05 34.7 °F 32.1 °F 30.18 in WNW 3.0 mph 10.0 mph 90 % 0.00 in 0 W/m2
20:10 34.5 °F 31.9 °F 30.18 in WNW 3.0 mph 10.0 mph 90 % 0.00 in 0 W/m2
20:15 34.5 °F 31.9 °F 30.18 in WNW 3.0 mph 10.0 mph 90 % 0.00 in 0 W/m2
20:25 34.4 °F 32.0 °F 30.19 in WNW 1.0 mph 10.0 mph 91 % 0.00 in 0 W/m2
20:30 34.4 °F 31.8 °F 30.19 in WNW 1.0 mph 1.0 mph 90 % 0.00 in 0 W/m2
20:35 34.3 °F 31.9 °F 30.19 in WNW 1.0 mph 10.0 mph 91 % 0.00 in 0 W/m2
20:40 34.2 °F 31.6 °F 30.19 in Calm   10.0 mph 90 % 0.00 in 0 W/m2
20:45 34.1 °F 31.7 °F 30.19 in Calm   10.0 mph 91 % 0.00 in 0 W/m2
20:50 34.0 °F 31.6 °F 30.19 in WNW 1.0 mph 10.0 mph 91 % 0.00 in 0 W/m2
21:00 34.0 °F 31.6 °F 30.19 in WNW 1.0 mph 1.0 mph 91 % 0.00 in 0 W/m2
21:05 34.1 °F 32.0 °F 30.19 in WNW 1.0 mph 10.0 mph 92 % 0.00 in 0 W/m2
21:10 34.3 °F 32.2 °F 30.19 in Calm   10.0 mph 92 % 0.00 in 0 W/m2
21:15 34.4 °F 32.3 °F 30.19 in WNW 1.0 mph 10.0 mph 92 % 0.00 in 0 W/m2
21:20 34.4 °F 32.3 °F 30.19 in WNW 1.0 mph 10.0 mph 92 % 0.00 in 0 W/m2
21:25 34.5 °F 32.1 °F 30.19 in WNW 1.0 mph 10.0 mph 91 % 0.00 in 0 W/m2
21:30 34.4 °F 32.0 °F 30.19 in WNW 1.0 mph 1.0 mph 91 % 0.00 in 0 W/m2
21:40 34.2 °F 31.8 °F 30.20 in Calm   10.0 mph 91 % 0.00 in 0 W/m2
21:45 34.1 °F 31.7 °F 30.20 in Calm   10.0 mph 91 % 0.00 in 0 W/m2
21:50 34.2 °F 32.1 °F 30.19 in NW 1.0 mph 10.0 mph 92 % 0.00 in 0 W/m2
21:55 34.5 °F 32.4 °F 30.19 in NW 1.0 mph 10.0 mph 92 % 0.00 in 0 W/m2
22:00 34.7 °F 32.6 °F 30.20 in NNW 2.0 mph 10.0 mph 92 % 0.00 in 0 W/m2
22:05 35.0 °F 32.9 °F 30.20 in NNW 1.0 mph 10.0 mph 92 % 0.00 in 0 W/m2
22:15 34.7 °F 32.1 °F 30.20 in Calm   10.0 mph 90 % 0.00 in 0 W/m2
22:20 34.7 °F 32.3 °F 30.20 in Calm   10.0 mph 91 % 0.00 in 0 W/m2
22:25 34.8 °F 32.4 °F 30.20 in Calm   10.0 mph 91 % 0.00 in 0 W/m2
22:30 34.6 °F 32.0 °F 30.20 in Calm   10.0 mph 90 % 0.00 in 0 W/m2
22:35 34.5 °F 31.9 °F 30.20 in Calm   10.0 mph 90 % 0.00 in 0 W/m2
22:40 34.3 °F 31.9 °F 30.20 in Calm   10.0 mph 91 % 0.00 in 0 W/m2
22:45 34.3 °F 31.9 °F 30.20 in Calm   10.0 mph 91 % 0.00 in 0 W/m2
22:55 34.3 °F 31.9 °F 30.20 in Calm   10.0 mph 91 % 0.00 in 0 W/m2
23:00 34.3 °F 31.9 °F 30.20 in Calm   10.0 mph 91 % 0.00 in 0 W/m2
23:05 34.3 °F 32.2 °F 30.20 in Calm   10.0 mph 92 % 0.00 in 0 W/m2
23:10 34.3 °F 31.9 °F 30.20 in Calm   10.0 mph 91 % 0.00 in 0 W/m2
23:15 34.4 °F 32.3 °F 30.20 in Calm   10.0 mph 92 % 0.00 in 0 W/m2
23:20 34.5 °F 32.4 °F 30.20 in Calm   10.0 mph 92 % 0.00 in 0 W/m2
23:25 34.5 °F 32.4 °F 30.20 in Calm   10.0 mph 92 % 0.00 in 0 W/m2
23:30 34.6 °F 32.5 °F 30.20 in Calm   10.0 mph 92 % 0.00 in 0 W/m2
23:40 34.7 °F 32.6 °F 30.20 in Calm   10.0 mph 92 % 0.00 in 0 W/m2
23:45 34.7 °F 32.6 °F 30.20 in Calm   10.0 mph 92 % 0.00 in 0 W/m2
23:50 34.7 °F 32.6 °F 30.20 in Calm   10.0 mph 92 % 0.00 in 0 W/m2
23:55 34.7 °F 32.6 °F 30.20 in Calm   10.0 mph 92 % 0.00 in 0 W/m2
Delerius-Weather
Compliments of Weather Underground - 2 mb

Data updates at regular intervals.